Time;durP1;ratioP1;P1;durP2;ratioP2;P2;SDS_P1;SDS_P2;PMS_P1;PMS_P2;Temp;Humidity;BMP_temperature;BMP_pressure;BME280_temperature;BME280_humidity;BME280_pressure;Samples;Min_cycle;Max_cycle;Signal;HPM_P1;HPM_P2
2022/12/20 00:01:28;;;;;;;6.72;2.75;;;;;;;10.12;100.00;101259.19;5090724;28;20517;-52
2022/12/20 00:03:57;;;;;;;4.07;2.25;;;;;;;10.12;100.00;101255.66;5093374;28;20052;-56
2022/12/20 00:06:26;;;;;;;5.10;2.60;;;;;;;10.14;100.00;101262.47;5091772;28;20509;-54
2022/12/20 00:08:59;;;;;;;3.67;2.58;;;;;;;10.21;100.00;101276.72;5092199;28;20036;-57
2022/12/20 00:11:27;;;;;;;4.50;2.90;;;;;;;10.16;100.00;101268.50;5091865;28;20079;-56
2022/12/20 00:13:56;;;;;;;6.95;2.60;;;;;;;10.21;100.00;101267.75;5092905;28;20040;-55
2022/12/20 00:16:26;;;;;;;5.40;2.40;;;;;;;10.12;100.00;101272.78;5092084;28;20082;-51
2022/12/20 00:18:57;;;;;;;5.65;2.70;;;;;;;10.16;100.00;101271.22;5091226;28;20043;-53
2022/12/20 00:21:25;;;;;;;4.35;2.80;;;;;;;10.28;100.00;101268.41;5093232;28;20047;-53
2022/12/20 00:23:53;;;;;;;3.97;2.33;;;;;;;10.22;100.00;101253.03;5109305;28;20062;-51
2022/12/20 00:26:26;;;;;;;5.05;2.35;;;;;;;10.21;100.00;101252.22;5092027;28;20126;-55
2022/12/20 00:28:55;;;;;;;5.07;2.35;;;;;;;10.32;100.00;101255.06;5090421;28;20486;-51
2022/12/20 00:31:25;;;;;;;5.13;2.58;;;;;;;10.31;100.00;101245.28;5074587;28;20037;-51
2022/12/20 00:33:54;;;;;;;5.18;2.50;;;;;;;10.26;100.00;101245.19;5074996;28;20510;-53
2022/12/20 00:36:23;;;;;;;2.95;2.00;;;;;;;10.21;100.00;101254.94;5091610;28;20040;-53
2022/12/20 00:38:53;;;;;;;5.32;2.35;;;;;;;10.32;100.00;101245.03;5091096;28;20119;-55
2022/12/20 00:41:24;;;;;;;5.07;2.60;;;;;;;10.28;100.00;101241.16;5094513;28;20406;-53
2022/12/20 00:43:53;;;;;;;2.55;1.80;;;;;;;10.38;100.00;101235.00;5092745;28;20040;-54
2022/12/20 00:46:23;;;;;;;4.40;2.42;;;;;;;10.38;100.00;101224.91;5091423;28;20067;-52
2022/12/20 00:48:53;;;;;;;4.78;2.42;;;;;;;10.34;100.00;101233.84;5092692;28;20050;-52
2022/12/20 00:51:23;;;;;;;3.95;2.40;;;;;;;10.34;100.00;101228.41;5091227;28;20036;-51
2022/12/20 00:53:51;;;;;;;3.97;2.25;;;;;;;10.31;100.00;101226.22;5092470;28;20048;-54
2022/12/20 00:56:19;;;;;;;3.92;2.17;;;;;;;10.28;100.00;101213.09;5078080;28;20050;-51
2022/12/20 00:58:47;;;;;;;4.13;2.20;;;;;;;10.27;100.00;101222.31;5094954;28;20043;-51
2022/12/20 01:01:25;;;;;;;2.78;1.92;;;;;;;10.26;100.00;101217.97;5095540;28;20039;-53
2022/12/20 01:03:53;;;;;;;4.55;2.70;;;;;;;10.31;100.00;101215.31;5078305;28;20398;-56
2022/12/20 01:06:22;;;;;;;5.05;2.40;;;;;;;10.32;100.00;101219.66;5095081;28;20044;-58
2022/12/20 01:08:50;;;;;;;4.25;2.45;;;;;;;10.50;100.00;101226.69;5093462;28;20036;-58
2022/12/20 01:11:23;;;;;;;4.45;2.30;;;;;;;10.50;100.00;101232.13;5086680;28;20063;-56
2022/12/20 01:13:54;;;;;;;4.38;2.15;;;;;;;10.46;100.00;101234.53;5111682;28;20047;-55
2022/12/20 01:16:33;;;;;;;3.72;2.28;;;;;;;10.36;100.00;101228.97;5094705;28;20040;-52
2022/12/20 01:19:01;;;;;;;3.05;2.13;;;;;;;10.35;100.00;101232.78;5097246;28;20048;-56
2022/12/20 01:21:29;;;;;;;3.35;1.98;;;;;;;10.34;100.00;101223.81;5060773;28;20041;-55
2022/12/20 01:23:57;;;;;;;4.82;2.33;;;;;;;10.37;100.00;101236.09;5091285;28;20055;-53
2022/12/20 01:26:27;;;;;;;2.67;2.00;;;;;;;10.43;100.00;101249.50;5078184;28;20128;-51
2022/12/20 01:28:58;;;;;;;4.85;2.10;;;;;;;10.42;100.00;101241.59;5087079;28;20052;-52
2022/12/20 01:31:27;;;;;;;2.78;2.00;;;;;;;10.44;100.00;101236.72;5089939;28;20536;-53
2022/12/20 01:33:55;;;;;;;4.88;2.53;;;;;;;10.51;100.00;101234.59;5094351;28;20044;-54
2022/12/20 01:36:27;;;;;;;3.92;2.30;;;;;;;10.40;100.00;101232.84;5095168;28;20128;-53
2022/12/20 01:39:14;;;;;;;5.90;2.55;;;;;;;10.34;100.00;101217.53;5089913;28;20064;-54
2022/12/20 01:41:43;;;;;;;3.75;2.45;;;;;;;10.42;100.00;101225.25;5094690;28;20095;-53
2022/12/20 01:44:17;;;;;;;4.40;1.95;;;;;;;10.45;100.00;101241.06;5095209;28;20051;-53
2022/12/20 01:46:47;;;;;;;3.53;1.92;;;;;;;10.54;100.00;101236.00;5095455;28;20044;-54
2022/12/20 01:49:18;;;;;;;4.88;2.17;;;;;;;10.50;100.00;101230.22;5077352;28;20124;-56
2022/12/20 01:51:52;;;;;;;5.25;2.20;;;;;;;10.31;100.00;101227.03;5096042;28;20036;-59
2022/12/20 01:54:27;;;;;;;6.45;2.40;;;;;;;10.29;100.00;101225.63;5095398;28;20040;-57
2022/12/20 01:56:58;;;;;;;3.15;1.83;;;;;;;10.15;100.00;101231.47;5094644;28;20040;-55
2022/12/20 01:59:26;;;;;;;3.20;2.15;;;;;;;10.18;100.00;101216.53;5059599;28;20032;-57
2022/12/20 02:01:58;;;;;;;3.35;2.33;;;;;;;10.24;100.00;101213.56;5094539;28;20498;-55
2022/12/20 02:04:26;;;;;;;4.53;2.58;;;;;;;10.26;100.00;101209.78;5093558;28;20048;-56
2022/12/20 02:06:53;;;;;;;3.97;2.28;;;;;;;10.21;100.00;101208.66;5060913;28;20081;-56
2022/12/20 02:09:22;;;;;;;4.22;2.30;;;;;;;10.21;100.00;101211.38;5094951;28;20568;-55
2022/12/20 02:11:50;;;;;;;3.53;2.42;;;;;;;10.20;100.00;101187.94;5094709;28;20082;-54
2022/12/20 02:14:29;;;;;;;3.85;2.50;;;;;;;10.14;100.00;101183.50;5095144;28;20044;-54
2022/12/20 02:17:11;;;;;;;3.40;2.15;;;;;;;10.21;100.00;101180.59;5095294;28;20082;-55
2022/12/20 02:20:00;;;;;;;3.25;2.13;;;;;;;10.33;100.00;101180.47;5095211;28;20410;-54
2022/12/20 02:22:43;;;;;;;5.95;2.50;;;;;;;10.36;100.00;101171.78;5094787;28;20090;-53
2022/12/20 02:25:29;;;;;;;3.40;2.03;;;;;;;10.36;100.00;101166.34;5094208;28;20382;-55
2022/12/20 02:28:16;;;;;;;3.42;2.10;;;;;;;10.30;100.00;101167.38;5093377;28;20048;-54
2022/12/20 02:30:46;;;;;;;3.20;2.10;;;;;;;10.19;100.00;101166.41;5109920;28;20054;-53
2022/12/20 02:33:14;;;;;;;3.75;2.10;;;;;;;10.17;100.00;101152.22;5093077;28;20555;-52
2022/12/20 02:35:42;;;;;;;3.47;2.22;;;;;;;10.04;100.00;101150.75;5092922;28;20064;-52
2022/12/20 02:38:34;;;;;;;2.92;2.15;;;;;;;10.06;100.00;101150.50;5093198;28;20494;-55
2022/12/20 02:41:15;;;;;;;5.38;2.30;;;;;;;9.99;100.00;101143.34;5092684;28;20040;-55
2022/12/20 02:46:34;;;;;;;4.97;2.08;;;;;;;9.91;100.00;101132.94;5093072;28;20064;-53
2022/12/20 02:49:10;;;;;;;4.97;2.60;;;;;;;9.88;100.00;101133.41;5076430;28;20052;-54
2022/12/20 02:51:38;;;;;;;;;;;;;;;9.92;100.00;101123.66;5092903;28;20044;-55
2022/12/20 02:54:06;;;;;;;3.90;2.28;;;;;;;9.89;100.00;101129.63;5092606;28;19926;-55
2022/12/20 02:57:00;;;;;;;3.78;2.45;;;;;;;9.86;100.00;101132.03;5092011;28;20093;-55
2022/12/20 03:00:04;;;;;;;4.20;2.63;;;;;;;9.90;100.00;101127.72;5075840;28;20116;-55
2022/12/20 03:03:21;;;;;;;3.42;2.05;;;;;;;10.04;100.00;101120.81;5086922;28;20087;-54
2022/12/20 03:05:24;;;;;;;3.55;2.22;;;;;;;10.08;100.00;101131.97;5078736;28;20398;-54
2022/12/20 03:07:52;;;;;;;5.30;2.80;;;;;;;10.04;100.00;101131.69;5092750;28;20052;-55
2022/12/20 03:10:23;;;;;;;4.55;2.13;;;;;;;10.03;100.00;101128.16;5091949;28;20054;-55
2022/12/20 03:12:50;;;;;;;2.58;2.03;;;;;;;10.04;100.00;101126.25;5093568;28;20075;-56
2022/12/20 03:15:18;;;;;;;5.65;2.65;;;;;;;10.01;100.00;101127.59;5075118;28;20427;-55
2022/12/20 03:17:49;;;;;;;1.85;1.70;;;;;;;10.22;100.00;101131.34;5092383;28;20071;-57
2022/12/20 03:20:16;;;;;;;3.75;2.15;;;;;;;10.30;100.00;101140.16;5072083;28;20047;-56
2022/12/20 03:22:44;;;;;;;5.45;2.60;;;;;;;10.29;100.00;101136.56;5076547;28;20048;-57
2022/12/20 03:25:12;;;;;;;3.92;2.38;;;;;;;10.30;100.00;101130.06;5090419;28;20045;-55
2022/12/20 03:27:40;;;;;;;3.33;2.00;;;;;;;10.34;100.00;101130.34;5083981;28;20126;-57
2022/12/20 03:30:09;;;;;;;3.25;2.20;;;;;;;10.37;100.00;101130.69;5075218;28;20028;-54
2022/12/20 03:32:37;;;;;;;3.70;2.20;;;;;;;10.43;100.00;101135.06;5075527;28;20093;-55
2022/12/20 03:35:06;;;;;;;2.50;1.83;;;;;;;10.52;100.00;101134.63;5091840;28;20529;-53
2022/12/20 03:37:37;;;;;;;4.07;2.13;;;;;;;10.50;100.00;101129.41;5108971;28;20406;-53
2022/12/20 03:40:08;;;;;;;2.00;1.50;;;;;;;10.50;100.00;101118.50;5091763;28;20122;-54
2022/12/20 03:42:36;;;;;;;2.90;1.88;;;;;;;10.53;100.00;101112.53;5080238;28;20439;-52
2022/12/20 03:45:05;;;;;;;2.08;1.88;;;;;;;10.79;100.00;101118.19;5092915;28;20044;-52
2022/12/20 03:47:34;;;;;;;3.92;2.30;;;;;;;10.73;100.00;101121.97;5108843;28;20040;-52
2022/12/20 03:50:02;;;;;;;6.10;2.17;;;;;;;10.71;100.00;101124.13;5093036;28;20043;-56
2022/12/20 03:52:33;;;;;;;3.10;1.95;;;;;;;10.73;100.00;101132.88;5091778;28;20100;-54
2022/12/20 03:55:02;;;;;;;3.60;1.90;;;;;;;10.80;100.00;101138.91;5088972;28;20036;-53
2022/12/20 03:57:37;;;;;;;1.92;1.70;;;;;;;11.01;100.00;101139.88;5091499;28;20058;-51
2022/12/20 04:00:13;;;;;;;5.30;2.13;;;;;;;11.08;100.00;101146.72;5087475;28;20384;-53
2022/12/20 04:02:41;;;;;;;2.50;1.67;;;;;;;10.91;100.00;101142.53;5092733;28;20040;-53
2022/12/20 04:05:12;;;;;;;3.25;1.77;;;;;;;11.02;100.00;101131.44;5077606;28;20062;-51
2022/12/20 04:07:39;;;;;;;3.53;2.30;;;;;;;11.03;100.00;101130.34;5091698;28;20398;-51
2022/12/20 04:10:07;;;;;;;4.28;2.15;;;;;;;10.94;100.00;101115.56;5091265;28;20040;-52
2022/12/20 04:12:35;;;;;;;3.40;1.95;;;;;;;11.11;100.00;101112.66;5091520;28;20506;-50
2022/12/20 04:15:06;;;;;;;2.97;1.70;;;;;;;11.03;100.00;101115.88;5108649;28;20040;-54
2022/12/20 04:17:35;;;;;;;3.00;1.60;;;;;;;11.09;100.00;101106.66;5108615;28;20081;-51
2022/12/20 04:20:17;;;;;;;4.43;2.10;;;;;;;10.97;100.00;101116.97;5074318;28;20042;-56
2022/12/20 04:22:51;;;;;;;2.60;1.92;;;;;;;10.84;100.00;101112.78;5092280;28;20491;-53
2022/12/20 04:25:20;;;;;;;4.15;2.13;;;;;;;10.82;100.00;101107.59;5091996;28;20068;-53
2022/12/20 04:27:48;;;;;;;3.85;2.08;;;;;;;10.82;100.00;101114.94;5085433;28;20043;-57
2022/12/20 04:30:16;;;;;;;6.43;2.22;;;;;;;10.86;100.00;101121.50;5093185;28;20560;-52
2022/12/20 04:32:44;;;;;;;2.90;1.60;;;;;;;10.78;100.00;101111.91;5112115;28;20586;-53
2022/12/20 04:35:12;;;;;;;2.45;1.60;;;;;;;10.87;100.00;101112.22;5095815;28;20099;-51
2022/12/20 04:37:41;;;;;;;3.85;2.30;;;;;;;10.85;100.00;101112.53;5097276;28;20514;-57
2022/12/20 04:40:09;;;;;;;2.40;1.67;;;;;;;10.73;100.00;101111.06;5095212;28;20040;-52
2022/12/20 04:42:50;;;;;;;3.65;1.95;;;;;;;10.71;100.00;101114.06;5094784;28;20563;-53
2022/12/20 04:45:18;;;;;;;3.13;1.98;;;;;;;10.75;100.00;101100.72;5096237;28;20035;-56
2022/12/20 04:47:46;;;;;;;1.98;1.55;;;;;;;10.68;100.00;101089.22;5112407;28;20494;-57
2022/12/20 04:50:18;;;;;;;4.22;2.15;;;;;;;10.74;100.00;101104.53;5100301;28;20099;-54
2022/12/20 04:55:42;;;;;;;2.97;1.73;;;;;;;10.79;100.00;101107.28;5075216;28;20118;-54
2022/12/20 04:58:10;;;;;;;3.20;1.95;;;;;;;10.82;100.00;101107.59;5097506;28;20039;-52
2022/12/20 05:00:39;;;;;;;4.60;1.95;;;;;;;10.90;100.00;101105.47;5097971;28;20490;-52
2022/12/20 05:03:21;;;;;;;2.85;2.10;;;;;;;10.83;100.00;101095.59;5098296;28;20090;-59
2022/12/20 05:05:50;;;;;;;2.55;1.63;;;;;;;10.77;100.00;101095.81;5096765;28;20399;-57
2022/12/20 05:08:18;;;;;;;4.40;1.80;;;;;;;10.78;100.00;101102.94;5077833;28;20040;-55
2022/12/20 05:10:47;;;;;;;3.08;2.22;;;;;;;10.80;100.00;101104.31;5094430;28;20036;-52
2022/12/20 05:13:15;;;;;;;6.38;2.20;;;;;;;10.78;100.00;101097.47;5094729;28;20032;-53
2022/12/20 05:15:45;;;;;;;4.38;2.20;;;;;;;10.70;100.00;101089.78;5083519;28;20039;-52
2022/12/20 05:18:12;;;;;;;5.47;2.35;;;;;;;10.60;100.00;101085.91;5094630;28;20105;-53
2022/12/20 05:26:15;;;;;;;5.30;2.20;;;;;;;10.94;100.00;101082.03;5098588;28;20043;-54
2022/12/20 05:26:27;;;;;;;3.33;1.80;;;;;;;10.90;100.00;101068.13;5094016;28;20497;-61
2022/12/20 05:28:55;;;;;;;3.25;1.80;;;;;;;10.89;100.00;101069.19;5094357;28;20505;-60
2022/12/20 05:31:24;;;;;;;2.13;1.70;;;;;;;10.94;100.00;101055.56;5076961;28;20044;-59
2022/12/20 05:33:53;;;;;;;1.98;1.75;;;;;;;11.04;100.00;101071.16;5093493;28;20123;-57
2022/12/20 05:36:22;;;;;;;3.10;1.85;;;;;;;11.14;100.00;101056.78;5090231;28;20055;-52
2022/12/20 05:38:50;;;;;;;1.73;1.38;;;;;;;11.25;100.00;101061.19;5076863;28;20051;-53
2022/12/20 05:41:19;;;;;;;2.42;1.95;;;;;;;11.16;100.00;101060.03;5093290;28;20029;-54
2022/12/20 05:43:49;;;;;;;4.63;1.92;;;;;;;11.14;100.00;101051.34;5094246;28;20047;-53
2022/12/20 05:46:17;;;;;;;3.97;2.00;;;;;;;11.15;100.00;101056.50;5093709;28;20044;-54
2022/12/20 05:48:56;;;;;;;7.15;2.00;;;;;;;11.33;100.00;101044.31;5076499;28;20498;-55
2022/12/20 05:51:25;;;;;;;2.30;1.38;;;;;;;11.43;98.99;101049.78;5093208;28;20040;-53
2022/12/20 05:53:56;;;;;;;3.30;1.73;;;;;;;11.33;100.00;101052.50;5093702;28;20071;-57
2022/12/20 05:56:39;;;;;;;3.33;1.75;;;;;;;11.42;99.79;101050.88;5093646;28;20032;-53
2022/12/20 05:59:08;;;;;;;3.03;2.05;;;;;;;11.33;100.00;101049.78;5082857;28;20043;-57
2022/12/20 06:01:36;;;;;;;2.20;1.70;;;;;;;11.22;100.00;101032.53;5093318;28;20040;-56
2022/12/20 06:04:05;;;;;;;1.63;1.52;;;;;;;11.11;100.00;101040.94;5081878;28;20044;-53
2022/12/20 06:06:33;;;;;;;3.33;2.15;;;;;;;11.08;100.00;101036.84;5092881;28;20402;-55
2022/12/20 06:09:00;;;;;;;4.88;2.35;;;;;;;11.14;100.00;101030.31;5093429;28;20048;-52
2022/12/20 06:11:42;;;;;;;3.03;1.73;;;;;;;11.21;100.00;101032.81;5093103;28;20040;-57
2022/12/20 06:14:13;;;;;;;4.15;2.38;;;;;;;11.15;100.00;101025.69;5089915;28;20056;-57
2022/12/20 06:16:45;;;;;;;4.30;2.17;;;;;;;11.03;100.00;101020.44;5091983;28;20558;-54
2022/12/20 06:19:15;;;;;;;8.68;2.30;;;;;;;10.91;100.00;101004.31;5093202;28;20131;-55
2022/12/20 06:21:49;;;;;;;2.97;1.98;;;;;;;10.87;100.00;101004.03;5072762;28;20398;-57
2022/12/20 06:24:24;;;;;;;2.38;1.77;;;;;;;10.76;100.00;101010.50;5085716;28;20510;-57
2022/12/20 06:26:52;;;;;;;4.60;2.28;;;;;;;10.80;100.00;101002.63;5110579;28;20086;-58
2022/12/20 06:29:23;;;;;;;4.43;2.55;;;;;;;10.70;100.00;101002.56;5092743;28;20459;-56
2022/12/20 06:32:04;;;;;;;3.00;1.88;;;;;;;10.77;100.00;101003.16;5092806;28;20032;-56
2022/12/20 06:34:32;;;;;;;3.13;1.85;;;;;;;10.74;100.00;101003.69;5093271;28;20040;-53
2022/12/20 06:37:00;;;;;;;4.15;2.20;;;;;;;10.86;100.00;101009.75;5092369;28;20036;-55
2022/12/20 06:39:31;;;;;;;5.63;2.50;;;;;;;10.79;100.00;101011.88;5092620;28;20094;-54
2022/12/20 06:42:04;;;;;;;4.82;2.13;;;;;;;10.71;100.00;100999.59;5092773;28;20032;-56
2022/12/20 06:44:34;;;;;;;4.10;2.03;;;;;;;10.68;100.00;100996.56;5109729;28;20191;-54
2022/12/20 06:47:02;;;;;;;4.15;2.15;;;;;;;10.62;100.00;101004.72;5074191;28;20396;-52
2022/12/20 06:49:31;;;;;;;3.72;1.80;;;;;;;10.69;100.00;101007.22;5093997;28;20039;-54
2022/12/20 06:51:59;;;;;;;4.65;1.77;;;;;;;10.75;100.00;101006.16;5091902;28;20118;-57
2022/12/20 06:54:53;;;;;;;2.97;1.80;;;;;;;10.78;100.00;101004.81;5089129;28;20101;-55
2022/12/20 06:57:22;;;;;;;5.50;2.08;;;;;;;10.76;100.00;101006.97;5087898;28;20051;-53
2022/12/20 06:59:51;;;;;;;6.40;1.95;;;;;;;10.71;100.00;101004.22;5082267;28;20064;-57
2022/12/20 07:02:18;;;;;;;3.55;2.17;;;;;;;10.80;100.00;101003.47;5093173;28;20044;-54
2022/12/20 07:04:46;;;;;;;3.42;1.85;;;;;;;10.81;100.00;100998.81;5093050;28;20048;-59
2022/12/20 07:07:14;;;;;;;3.97;2.13;;;;;;;10.74;100.00;101009.13;5092997;28;20040;-58
2022/12/20 07:09:41;;;;;;;4.80;2.10;;;;;;;10.69;100.00;101009.13;5093481;28;20047;-56
2022/12/20 07:12:09;;;;;;;3.25;1.98;;;;;;;10.71;100.00;101006.94;5091687;28;20032;-58
2022/12/20 07:14:37;;;;;;;3.17;1.83;;;;;;;10.82;100.00;101016.81;5093356;28;20067;-58
2022/12/20 07:17:06;;;;;;;7.32;2.70;;;;;;;10.87;100.00;101009.50;5093166;28;20466;-58
2022/12/20 07:19:35;;;;;;;4.45;2.45;;;;;;;10.87;100.00;101000.47;5078789;28;20525;-56
2022/12/20 07:22:04;;;;;;;8.13;2.22;;;;;;;10.93;100.00;101001.34;5074365;28;20048;-55
2022/12/20 07:24:33;;;;;;;4.20;1.90;;;;;;;10.93;100.00;101006.78;5091527;28;20399;-55
2022/12/20 07:27:01;;;;;;;3.88;1.95;;;;;;;10.96;100.00;101000.78;5092791;28;20051;-54
2022/12/20 07:29:29;;;;;;;4.60;2.15;;;;;;;10.96;100.00;101001.59;5093006;28;20036;-56
2022/12/20 07:31:56;;;;;;;5.40;2.40;;;;;;;10.92;100.00;101005.13;5092897;28;20036;-57
2022/12/20 07:34:24;;;;;;;4.40;2.00;;;;;;;10.87;100.00;101001.31;5092787;28;20494;-54
2022/12/20 07:36:52;;;;;;;6.07;2.25;;;;;;;10.79;100.00;100999.06;5091529;28;20077;-57
2022/12/20 07:39:20;;;;;;;2.47;1.55;;;;;;;10.87;100.00;101003.19;5093135;28;20040;-57
2022/12/20 07:41:47;;;;;;;3.45;2.13;;;;;;;10.83;100.00;101010.28;5091157;28;20044;-57
2022/12/20 07:44:16;;;;;;;5.60;2.00;;;;;;;11.13;100.00;101012.31;5092962;28;20432;-58
2022/12/20 07:46:44;;;;;;;9.98;2.50;;;;;;;11.14;100.00;101007.69;5092859;28;20032;-56
2022/12/20 07:49:12;;;;;;;4.70;2.17;;;;;;;11.09;100.00;101022.94;5092963;28;20035;-57
2022/12/20 07:51:44;;;;;;;4.00;1.67;;;;;;;11.08;100.00;101015.84;5084078;28;20552;-55
2022/12/20 07:54:21;;;;;;;4.22;1.90;;;;;;;11.05;100.00;101016.38;5092032;28;20123;-57
2022/12/20 07:56:52;;;;;;;6.35;2.10;;;;;;;11.14;100.00;101029.50;5093754;28;20059;-54
2022/12/20 07:59:24;;;;;;;3.75;2.13;;;;;;;11.11;100.00;101025.38;5091186;28;20475;-54
2022/12/20 08:01:52;;;;;;;3.35;1.95;;;;;;;11.07;100.00;101033.28;5090140;28;20054;-56
2022/12/20 08:04:26;;;;;;;5.63;1.92;;;;;;;11.18;100.00;101038.78;5092705;28;20074;-51
2022/12/20 08:06:55;;;;;;;3.83;1.88;;;;;;;11.22;100.00;101048.09;5092904;28;20047;-57
2022/12/20 08:09:24;;;;;;;4.18;1.90;;;;;;;11.25;100.00;101042.09;5090969;28;20047;-57
2022/12/20 08:11:52;;;;;;;6.32;2.28;;;;;;;11.18;100.00;101041.50;5092125;28;20033;-57
2022/12/20 08:14:20;;;;;;;3.75;1.98;;;;;;;11.09;100.00;101044.75;5091713;28;20398;-57
2022/12/20 08:16:48;;;;;;;9.32;2.05;;;;;;;11.13;100.00;101036.03;5092733;28;20036;-54
2022/12/20 08:19:16;;;;;;;7.68;2.75;;;;;;;11.17;100.00;101037.16;5092500;28;20044;-52
2022/12/20 08:21:43;;;;;;;8.40;2.50;;;;;;;11.15;100.00;101036.59;5090276;28;20040;-53
2022/12/20 08:24:11;;;;;;;5.65;2.70;;;;;;;11.07;100.00;101038.75;5092378;28;20048;-53
2022/12/20 08:26:39;;;;;;;11.68;3.63;;;;;;;11.14;100.00;101035.78;5090766;28;20040;-53
2022/12/20 08:29:07;;;;;;;9.48;3.65;;;;;;;11.18;100.00;101030.59;5092455;28;20046;-53
2022/12/20 08:31:39;;;;;;;8.75;3.25;;;;;;;11.13;100.00;101027.84;5091434;28;20426;-50
2022/12/20 08:34:14;;;;;;;14.05;4.88;;;;;;;11.25;100.00;101034.72;5092746;28;20037;-55
2022/12/20 08:36:42;;;;;;;15.75;4.90;;;;;;;11.38;100.00;101027.97;5092477;28;20051;-56
2022/12/20 08:39:10;;;;;;;10.98;3.85;;;;;;;11.38;100.00;101041.59;5092415;28;20123;-57
2022/12/20 08:41:38;;;;;;;5.00;2.90;;;;;;;11.35;100.00;101031.19;5102966;28;20040;-53
2022/12/20 08:44:06;;;;;;;10.00;2.95;;;;;;;11.37;100.00;101034.47;5092652;28;20052;-56
2022/12/20 08:46:33;;;;;;;9.23;3.15;;;;;;;11.40;100.00;101030.41;5107696;28;20047;-57
2022/12/20 08:49:04;;;;;;;7.05;3.17;;;;;;;11.27;100.00;101029.81;5093623;28;20475;-58
2022/12/20 08:51:31;;;;;;;6.82;2.75;;;;;;;11.21;100.00;101027.34;5096982;28;20071;-57
2022/12/20 08:54:01;;;;;;;4.28;2.30;;;;;;;11.22;100.00;101027.06;5096137;28;20040;-58
2022/12/20 08:56:29;;;;;;;6.35;2.38;;;;;;;11.23;100.00;101022.44;5091437;28;20422;-55
2022/12/20 08:58:56;;;;;;;6.03;2.70;;;;;;;11.18;100.00;101015.06;5074422;28;20119;-56
2022/12/20 09:01:25;;;;;;;8.55;2.72;;;;;;;11.22;100.00;101018.06;5090743;28;20125;-54
2022/12/20 09:03:53;;;;;;;6.97;2.80;;;;;;;11.15;100.00;101014.78;5092288;28;20119;-54
2022/12/20 09:06:22;;;;;;;6.10;2.40;;;;;;;11.15;100.00;101006.59;5092918;28;20056;-55
2022/12/20 09:08:50;;;;;;;4.68;2.33;;;;;;;11.15;100.00;101009.31;5093202;28;20047;-56
2022/12/20 09:11:25;;;;;;;5.13;2.50;;;;;;;11.12;100.00;101020.78;5077802;28;20410;-56
2022/12/20 09:13:56;;;;;;;5.22;2.75;;;;;;;11.23;100.00;101016.97;5090584;28;20115;-55
2022/12/20 09:16:26;;;;;;;5.53;2.20;;;;;;;11.29;100.00;101013.19;5092335;28;20043;-57
2022/12/20 09:18:56;;;;;;;6.80;2.28;;;;;;;11.46;100.00;101016.50;5095454;28;20433;-55
2022/12/20 09:21:32;;;;;;;6.25;2.25;;;;;;;11.37;100.00;101006.38;5095854;28;20477;-56
2022/12/20 09:24:00;;;;;;;5.10;2.58;;;;;;;11.33;100.00;101005.28;5095512;28;20048;-53
2022/12/20 09:26:29;;;;;;;6.70;2.80;;;;;;;11.26;100.00;100997.38;5094267;28;20036;-56
2022/12/20 09:28:57;;;;;;;4.20;2.35;;;;;;;11.26;100.00;101011.00;5096081;28;20044;-55
2022/12/20 09:31:26;;;;;;;6.00;2.33;;;;;;;11.32;100.00;100999.00;5095213;28;20056;-54
2022/12/20 09:33:55;;;;;;;4.93;2.17;;;;;;;11.18;100.00;101003.31;5095455;28;20395;-56
2022/12/20 09:36:24;;;;;;;7.65;2.55;;;;;;;11.16;100.00;101000.03;5095574;28;20040;-56
2022/12/20 09:38:53;;;;;;;5.55;2.22;;;;;;;11.17;100.00;101002.50;5095084;28;20042;-56
2022/12/20 09:41:41;;;;;;;6.65;2.22;;;;;;;11.23;100.00;101006.06;5093994;28;20493;-51
2022/12/20 09:44:32;;;;;;;7.00;2.22;;;;;;;11.28;100.00;101003.34;5093663;28;20040;-56
2022/12/20 09:47:21;;;;;;;4.82;2.25;;;;;;;11.28;100.00;101008.81;5095358;28;20044;-55
2022/12/20 09:49:53;;;;;;;5.63;1.98;;;;;;;11.40;100.00;101012.16;5093809;28;20149;-56
2022/12/20 09:52:35;;;;;;;2.83;1.85;;;;;;;11.41;100.00;101000.13;5094040;28;20042;-52
2022/12/20 09:55:35;;;;;;;4.45;2.20;;;;;;;11.41;100.00;101007.50;5095426;28;20052;-55
2022/12/20 09:58:38;;;;;;;5.88;2.50;;;;;;;11.26;100.00;101002.81;5087360;28;20040;-56
2022/12/20 10:01:18;;;;;;;4.15;2.28;;;;;;;11.16;100.00;101000.03;5069459;28;20052;-56
2022/12/20 10:03:52;;;;;;;4.13;2.08;;;;;;;11.11;100.00;101005.47;5094572;28;20036;-55
2022/12/20 10:06:29;;;;;;;5.53;2.50;;;;;;;11.15;100.00;101001.97;5094571;28;20040;-56
2022/12/20 10:08:58;;;;;;;4.47;2.40;;;;;;;11.11;100.00;101002.75;5094965;28;20486;-52
2022/12/20 10:11:49;;;;;;;4.70;2.40;;;;;;;10.91;100.00;100990.69;5094771;28;20449;-55
2022/12/20 10:14:29;;;;;;;5.03;2.65;;;;;;;10.82;100.00;100984.09;5094781;28;20063;-51
2022/12/20 10:17:36;;;;;;;5.30;2.42;;;;;;;10.73;100.00;100985.72;5086746;28;20048;-53
2022/12/20 10:20:21;;;;;;;18.02;6.60;;;;;;;10.84;100.00;100987.38;5088247;28;20067;-57
2022/12/20 10:22:52;;;;;;;;;;;;;;;11.13;100.00;100982.31;5095030;28;20050;-56
2022/12/20 10:25:22;;;;;;;16.52;5.00;;;;;;;11.16;100.00;100981.78;5094579;28;19927;-56
2022/12/20 10:27:52;;;;;;;19.88;5.05;;;;;;;11.22;100.00;100977.16;5072298;28;20067;-53
2022/12/20 10:30:22;;;;;;;17.67;5.28;;;;;;;11.28;100.00;100982.38;5094265;28;20044;-57
2022/12/20 10:32:53;;;;;;;7.30;3.03;;;;;;;11.21;100.00;100975.53;5093243;28;20458;-57
2022/12/20 10:35:40;;;;;;;8.55;3.00;;;;;;;11.24;100.00;100981.25;5092801;28;20043;-57
2022/12/20 10:38:12;;;;;;;13.43;4.38;;;;;;;11.27;100.00;100982.63;5094606;28;20047;-57
2022/12/20 10:40:51;;;;;;;9.65;3.17;;;;;;;11.17;100.00;100975.25;5093428;28;20039;-57
2022/12/20 10:43:51;;;;;;;6.30;2.90;;;;;;;11.16;100.00;100968.16;5094011;28;20052;-56
2022/12/20 10:46:19;;;;;;;14.05;4.22;;;;;;;11.24;100.00;100977.72;5094102;28;20040;-56
2022/12/20 10:48:49;;;;;;;7.97;2.80;;;;;;;11.23;100.00;100967.88;5093885;28;20536;-57
2022/12/20 10:51:19;;;;;;;14.73;4.20;;;;;;;11.42;100.00;100971.75;5093601;28;20032;-57
2022/12/20 10:53:58;;;;;;;16.08;3.92;;;;;;;11.57;100.00;100976.44;5094216;28;20055;-54
2022/12/20 10:56:35;;;;;;;12.48;3.60;;;;;;;11.67;100.00;100983.81;5093748;28;20040;-55
2022/12/20 10:59:15;;;;;;;7.55;2.95;;;;;;;11.60;100.00;100972.34;5093482;28;20040;-56
2022/12/20 11:01:45;;;;;;;8.77;2.80;;;;;;;11.22;100.00;100971.72;5110495;28;20047;-56
2022/12/20 11:04:34;;;;;;;4.50;2.70;;;;;;;10.95;100.00;100975.44;5092401;28;20044;-53
2022/12/20 11:07:21;;;;;;;6.90;3.97;;;;;;;10.83;100.00;100963.94;5093825;28;20040;-54
2022/12/20 11:09:55;;;;;;;5.68;2.58;;;;;;;10.76;100.00;100960.66;5093670;28;20448;-56
2022/12/20 11:12:23;;;;;;;7.57;3.17;;;;;;;10.69;100.00;100971.78;5093876;28;20143;-57
2022/12/20 11:15:15;;;;;;;7.25;2.83;;;;;;;10.64;100.00;100961.69;5091985;28;20090;-53
2022/12/20 11:17:50;;;;;;;6.18;2.60;;;;;;;10.57;100.00;100955.66;5092128;28;20394;-54
2022/12/20 11:20:39;;;;;;;6.72;2.95;;;;;;;10.54;100.00;100967.06;5091811;28;20047;-56
2022/12/20 11:23:24;;;;;;;5.70;2.60;;;;;;;10.51;100.00;100956.72;5093386;28;20047;-57
2022/12/20 11:26:07;;;;;;;4.93;2.60;;;;;;;10.52;100.00;100957.53;5093071;28;20043;-56
2022/12/20 11:28:48;;;;;;;4.68;2.60;;;;;;;10.50;100.00;100955.06;5092873;28;20039;-56
2022/12/20 11:31:46;;;;;;;5.65;2.60;;;;;;;10.49;100.00;100952.63;5093390;28;20048;-55
2022/12/20 11:34:30;;;;;;;6.75;2.88;;;;;;;10.50;100.00;100952.34;5093294;28;20498;-55
2022/12/20 11:37:20;;;;;;;39.65;13.95;;;;;;;10.62;100.00;100950.22;5072628;28;20028;-53
2022/12/20 11:40:26;;;;;;;46.75;19.02;;;;;;;10.87;100.00;100948.69;5093382;28;20044;-53
2022/12/20 11:43:12;;;;;;;17.60;6.82;;;;;;;11.02;100.00;100939.75;5083816;28;20577;-56
2022/12/20 11:45:48;;;;;;;;;;;;;;;11.17;100.00;100939.78;5093006;28;20055;-54
2022/12/20 11:48:43;;;;;;;43.85;18.88;;;;;;;11.23;100.00;100938.72;5093047;28;19969;-53
2022/12/20 11:51:23;;;;;;;27.13;11.93;;;;;;;11.22;100.00;100937.06;5091648;28;20402;-56